createdAt,value
2022-09-05T00:00:05.359Z,82.74
2022-09-05T00:02:48.942Z,83.20
2022-09-05T00:06:03.218Z,83.01
2022-09-05T00:08:40.946Z,82.32
2022-09-05T00:11:43.295Z,81.69
2022-09-05T00:14:34.347Z,82.35
2022-09-05T00:17:43.760Z,81.90
2022-09-05T00:24:25.895Z,83.85
2022-09-05T00:24:28.688Z,84.38
2022-09-05T00:26:18.869Z,85.28
2022-09-05T00:28:57.660Z,85.21
2022-09-05T00:31:55.175Z,85.83
2022-09-05T00:34:59.716Z,87.05
2022-09-05T00:37:33.746Z,86.44
2022-09-05T00:40:31.380Z,88.51
2022-09-05T00:43:03.206Z,87.44
2022-09-05T00:45:36.367Z,86.95
2022-09-05T00:48:16.647Z,87.92
2022-09-05T00:50:59.675Z,88.12
2022-09-05T00:53:37.947Z,87.53
2022-09-05T00:56:21.282Z,88.11
2022-09-05T00:58:59.674Z,88.27
2022-09-05T01:01:32.682Z,88.78
2022-09-05T01:04:19.751Z,88.81
2022-09-05T01:07:04.832Z,88.49
2022-09-05T01:09:47.955Z,89.33
2022-09-05T01:12:36.068Z,89.33
2022-09-05T01:15:22.444Z,89.38
2022-09-05T01:18:08.113Z,89.51
2022-09-05T01:20:51.533Z,89.48
2022-09-05T01:24:00.901Z,89.32
2022-09-05T01:26:54.846Z,89.67
2022-09-05T01:29:31.131Z,89.15
2022-09-05T01:32:15.686Z,89.82
2022-09-05T01:34:58.041Z,89.78
2022-09-05T01:37:37.410Z,89.51
2022-09-05T01:40:19.587Z,90.04
2022-09-05T01:43:12.029Z,89.81
2022-09-05T01:45:51.220Z,90.12
2022-09-05T01:48:37.636Z,90.39
2022-09-05T01:51:28.743Z,90.15
2022-09-05T01:54:19.845Z,90.38
2022-09-05T01:57:08.949Z,90.54
2022-09-05T01:59:46.055Z,90.10
2022-09-05T02:02:39.555Z,90.87
2022-09-05T02:05:48.503Z,90.48
2022-09-05T02:08:56.130Z,91.06
2022-09-05T02:11:41.992Z,90.83
2022-09-05T02:14:28.820Z,90.78
2022-09-05T02:17:27.431Z,90.97
2022-09-05T02:20:13.826Z,90.15
2022-09-05T02:23:01.583Z,90.26
2022-09-05T02:26:01.592Z,89.95
2022-09-05T02:28:38.240Z,89.97
2022-09-05T02:31:20.087Z,90.06
2022-09-05T02:34:02.095Z,89.78
2022-09-05T02:36:41.074Z,89.91
2022-09-05T02:45:01.649Z,89.25
2022-09-05T02:45:17.494Z,89.01
2022-09-05T02:45:26.825Z,89.55
2022-09-05T02:48:14.721Z,89.61
2022-09-05T02:57:23.894Z,89.34
2022-09-05T02:57:34.407Z,89.08
2022-09-05T02:57:36.858Z,88.83
2022-09-05T02:59:51.526Z,89.11
2022-09-05T03:02:28.702Z,88.98
2022-09-05T03:05:04.944Z,88.71
2022-09-05T03:08:02.431Z,89.29
2022-09-05T03:11:04.199Z,89.50
2022-09-05T03:14:12.195Z,89.40
2022-09-05T03:17:13.461Z,89.18
2022-09-05T03:20:12.163Z,88.87
2022-09-05T03:23:05.027Z,89.04
2022-09-05T03:26:09.094Z,88.71
2022-09-05T03:29:11.496Z,88.67
2022-09-05T03:32:15.089Z,88.12
2022-09-05T03:35:08.686Z,88.68
2022-09-05T03:37:54.931Z,88.70
2022-09-05T03:40:59.371Z,88.96
2022-09-05T03:43:59.476Z,89.14
2022-09-05T03:46:58.478Z,89.03
2022-09-05T03:51:39.441Z,88.41
2022-09-05T03:57:08.275Z,88.37
2022-09-05T03:57:17.060Z,88.36
2022-09-05T03:58:57.400Z,88.41
2022-09-05T04:03:20.279Z,88.62
2022-09-05T04:08:11.549Z,89.82
2022-09-05T04:08:27.485Z,89.51
2022-09-05T04:10:24.749Z,89.26
2022-09-05T04:12:58.823Z,89.29
2022-09-05T04:15:39.283Z,89.98
2022-09-05T04:18:28.015Z,90.94
2022-09-05T04:21:06.131Z,90.27
2022-09-05T04:23:44.421Z,90.22
2022-09-05T04:26:26.083Z,91.91
2022-09-05T04:29:05.518Z,91.40
2022-09-05T04:31:45.407Z,90.30
2022-09-05T04:34:34.877Z,90.14
2022-09-05T04:37:04.990Z,89.81
2022-09-05T04:39:35.746Z,89.86
2022-09-05T04:42:19.879Z,90.09
2022-09-05T04:44:55.840Z,89.42
2022-09-05T04:47:30.073Z,89.60
2022-09-05T04:50:07.146Z,89.52
2022-09-05T04:52:54.026Z,89.28
2022-09-05T04:55:26.011Z,89.57
2022-09-05T04:57:59.772Z,89.32
2022-09-05T05:04:53.525Z,89.57
2022-09-05T05:06:09.092Z,89.49
2022-09-05T05:06:44.102Z,89.65
2022-09-05T05:09:21.813Z,89.58
2022-09-05T05:17:53.833Z,89.64
2022-09-05T05:18:10.724Z,89.66
2022-09-05T05:18:11.813Z,89.62
2022-09-05T05:20:42.579Z,89.26
2022-09-05T05:23:18.086Z,89.21
2022-09-05T05:25:51.692Z,89.35
2022-09-05T05:28:28.587Z,89.93
2022-09-05T05:31:01.480Z,89.86
2022-09-05T05:33:35.019Z,89.74
2022-09-05T05:36:05.156Z,89.31
2022-09-05T05:38:41.040Z,89.02
2022-09-05T05:41:18.551Z,89.31
2022-09-05T05:43:48.183Z,89.58
2022-09-05T05:46:27.801Z,89.75
2022-09-05T05:49:08.612Z,89.30
2022-09-05T05:52:01.175Z,88.81
2022-09-05T05:54:38.370Z,88.42
2022-09-05T05:57:37.850Z,88.93
2022-09-05T06:00:14.878Z,89.06
2022-09-05T06:03:35.513Z,91.99
2022-09-05T06:06:14.987Z,92.67
2022-09-05T06:12:48.735Z,91.74
2022-09-05T06:14:58.564Z,92.52
2022-09-05T06:16:50.481Z,92.10
2022-09-05T06:22:04.146Z,91.71
2022-09-05T06:23:36.687Z,92.12
2022-09-05T06:26:34.015Z,91.80
2022-09-05T06:29:13.620Z,92.31
2022-09-05T06:32:02.374Z,92.56
2022-09-05T06:35:00.192Z,91.60
2022-09-05T06:37:39.794Z,91.33
2022-09-05T06:40:17.693Z,91.79
2022-09-05T06:43:03.904Z,93.20
2022-09-05T06:45:44.235Z,94.72
2022-09-05T06:48:44.729Z,95.05
2022-09-05T06:51:44.154Z,95.49
2022-09-05T06:54:59.945Z,94.18
2022-09-05T06:57:50.014Z,93.58
2022-09-05T07:00:23.763Z,92.80
2022-09-05T07:03:20.248Z,92.26
2022-09-05T07:05:57.767Z,91.48
2022-09-05T07:08:37.153Z,91.07
2022-09-05T07:11:15.549Z,91.55
2022-09-05T07:13:55.994Z,92.09
2022-09-05T07:16:37.727Z,91.86
2022-09-05T07:19:27.057Z,92.05
2022-09-05T07:22:48.038Z,91.93
2022-09-05T07:25:18.037Z,91.02
2022-09-05T07:28:25.944Z,90.90
2022-09-05T07:30:47.969Z,90.00
2022-09-05T07:33:21.198Z,90.03
2022-09-05T07:35:52.572Z,89.47
2022-09-05T07:38:26.713Z,88.75
2022-09-05T07:41:13.740Z,88.06
2022-09-05T07:43:46.500Z,89.13
2022-09-05T07:46:18.931Z,89.96
2022-09-05T07:48:51.340Z,90.02
2022-09-05T07:56:49.385Z,90.31
2022-09-05T07:57:06.380Z,90.08
2022-09-05T07:57:27.212Z,89.45
2022-09-05T08:00:05.424Z,89.04
2022-09-05T08:02:47.002Z,86.92
2022-09-05T08:05:26.536Z,83.97
2022-09-05T08:08:09.732Z,82.81
2022-09-05T08:11:22.275Z,81.18
2022-09-05T08:13:50.001Z,80.65
2022-09-05T08:16:22.699Z,81.20
2022-09-05T08:18:55.378Z,80.60
2022-09-05T08:21:28.400Z,80.25
2022-09-05T08:24:05.546Z,79.54
2022-09-05T08:26:47.287Z,78.48
2022-09-05T08:29:28.328Z,77.18
2022-09-05T08:32:01.625Z,78.02
2022-09-05T08:34:45.361Z,77.15
2022-09-05T08:37:21.408Z,76.12
2022-09-05T08:40:03.918Z,76.10
2022-09-05T08:43:29.492Z,74.70
2022-09-05T08:46:40.696Z,72.86
2022-09-05T08:48:47.264Z,70.34
2022-09-05T08:51:30.780Z,68.45
2022-09-05T08:54:16.975Z,69.00
2022-09-05T08:56:54.553Z,69.75
2022-09-05T08:59:33.440Z,70.28
2022-09-05T09:02:47.820Z,68.38
2022-09-05T09:05:24.056Z,69.69
2022-09-05T09:07:58.088Z,68.17
2022-09-05T09:10:47.167Z,68.66
2022-09-05T09:13:32.182Z,65.30
2022-09-05T09:16:06.842Z,64.73
2022-09-05T09:18:45.372Z,64.72
2022-09-05T09:21:26.264Z,65.14
2022-09-05T09:24:07.188Z,64.00
2022-09-05T09:26:43.542Z,62.93
2022-09-05T09:29:14.537Z,63.06
2022-09-05T09:32:05.542Z,62.63
2022-09-05T09:35:21.360Z,62.83
2022-09-05T09:38:07.362Z,62.94
2022-09-05T09:41:04.645Z,62.47
2022-09-05T09:43:53.190Z,62.36
2022-09-05T09:46:34.107Z,62.25
2022-09-05T09:49:23.776Z,61.63
2022-09-05T09:52:39.936Z,60.22
2022-09-05T09:55:48.917Z,59.24
2022-09-05T09:58:45.367Z,60.86
2022-09-05T10:01:37.011Z,59.38
2022-09-05T10:10:33.716Z,59.87
2022-09-05T10:10:56.270Z,59.10
2022-09-05T10:14:49.659Z,61.14
2022-09-05T10:17:56.018Z,58.90
2022-09-05T10:21:15.406Z,59.01
2022-09-05T10:24:08.923Z,60.47
2022-09-05T10:27:00.460Z,58.81
2022-09-05T10:29:47.902Z,58.46
2022-09-05T10:35:04.416Z,59.18
2022-09-05T10:35:25.760Z,59.13
2022-09-05T10:38:00.884Z,59.27
2022-09-05T10:41:14.649Z,59.51
2022-09-05T10:43:29.952Z,59.51
2022-09-05T10:46:09.492Z,58.75
2022-09-05T10:48:53.058Z,59.19
2022-09-05T10:51:30.463Z,58.04
2022-09-05T10:54:16.347Z,57.70
2022-09-05T10:56:48.336Z,58.44
2022-09-05T11:02:20.101Z,58.32
2022-09-05T11:02:28.059Z,60.04
2022-09-05T11:05:10.795Z,58.43
2022-09-05T11:07:49.179Z,58.55
2022-09-05T11:10:23.456Z,58.91
2022-09-05T11:13:05.775Z,59.67
2022-09-05T11:16:03.681Z,60.17
2022-09-05T11:18:55.540Z,59.33
2022-09-05T11:21:31.343Z,58.55
2022-09-05T11:24:09.656Z,57.93
2022-09-05T11:26:43.489Z,57.17
2022-09-05T11:29:22.599Z,57.52
2022-09-05T11:37:29.349Z,57.92
2022-09-05T11:39:57.302Z,55.23
2022-09-05T11:39:58.279Z,58.51
2022-09-05T11:41:54.247Z,58.04
2022-09-05T11:44:30.548Z,56.58
2022-09-05T11:47:44.355Z,55.92
2022-09-05T11:50:41.837Z,53.98
2022-09-05T11:53:41.967Z,54.83
2022-09-05T11:56:38.051Z,54.67
2022-09-05T11:59:45.151Z,54.66
2022-09-05T12:02:38.951Z,54.70
2022-09-05T12:05:50.385Z,52.31
2022-09-05T12:08:36.379Z,52.62
2022-09-05T12:11:21.039Z,52.38
2022-09-05T12:13:55.794Z,52.32
2022-09-05T12:16:51.101Z,50.74
2022-09-05T12:19:32.884Z,51.74
2022-09-05T12:22:36.934Z,50.81
2022-09-05T12:27:43.063Z,49.02
2022-09-05T12:29:26.280Z,50.69
2022-09-05T12:32:41.688Z,49.30
2022-09-05T12:36:07.463Z,50.08
2022-09-05T12:40:32.570Z,50.66
2022-09-05T12:41:35.165Z,49.62
2022-09-05T12:43:39.387Z,48.18
2022-09-05T12:45:56.776Z,49.15
2022-09-05T12:48:38.935Z,49.12
2022-09-05T12:51:45.402Z,49.66
2022-09-05T12:54:09.457Z,50.97
2022-09-05T13:00:41.180Z,49.04
2022-09-05T13:03:05.547Z,48.91
2022-09-05T13:03:12.395Z,50.05
2022-09-05T13:05:52.198Z,49.01
2022-09-05T13:08:27.711Z,48.54
2022-09-05T13:14:47.446Z,49.64
2022-09-05T13:14:53.364Z,47.78
2022-09-05T13:16:45.702Z,49.35
2022-09-05T13:19:37.374Z,49.07
2022-09-05T13:22:08.671Z,48.34
2022-09-05T13:24:41.770Z,48.19
2022-09-05T13:27:14.827Z,49.86
2022-09-05T13:31:39.308Z,48.89
2022-09-05T13:38:06.156Z,48.83
2022-09-05T13:38:21.302Z,48.64
2022-09-05T13:38:47.716Z,48.91
2022-09-05T13:41:28.286Z,48.10
2022-09-05T13:44:00.377Z,49.04
2022-09-05T13:46:58.928Z,48.56
2022-09-05T13:49:33.370Z,48.25
2022-09-05T13:52:26.290Z,48.46
2022-09-05T13:55:07.344Z,48.79
2022-09-05T13:57:41.564Z,47.88
2022-09-05T14:00:51.495Z,46.98
2022-09-05T14:03:47.423Z,47.30
2022-09-05T14:06:47.449Z,46.85
2022-09-05T14:09:36.941Z,46.70
2022-09-05T14:12:15.231Z,46.09
2022-09-05T14:17:56.229Z,46.30
2022-09-05T14:20:49.486Z,46.73
2022-09-05T14:23:24.295Z,46.83
2022-09-05T14:25:56.317Z,46.62
2022-09-05T14:28:29.056Z,47.13
2022-09-05T14:37:13.016Z,46.75
2022-09-05T14:37:50.571Z,46.30
2022-09-05T14:37:50.670Z,47.94
2022-09-05T14:40:43.339Z,46.32
2022-09-05T14:43:44.265Z,45.44
2022-09-05T14:46:33.469Z,45.94
2022-09-05T14:49:18.340Z,45.32
2022-09-05T14:51:48.329Z,45.55
2022-09-05T15:02:39.689Z,45.22
2022-09-05T15:02:48.564Z,44.96
2022-09-05T15:03:06.030Z,44.92
2022-09-05T15:05:41.204Z,44.51
2022-09-05T15:08:44.644Z,44.73
2022-09-05T15:12:18.641Z,44.97
2022-09-05T15:13:57.674Z,44.52
2022-09-05T15:16:26.857Z,45.12
2022-09-05T15:18:56.425Z,44.66
2022-09-05T15:21:33.555Z,44.52
2022-09-05T15:24:14.907Z,44.19
2022-09-05T15:26:53.156Z,44.51
2022-09-05T15:29:24.655Z,44.78
2022-09-05T15:32:09.584Z,44.56
2022-09-05T15:34:40.227Z,44.01
2022-09-05T15:37:30.687Z,44.52
2022-09-05T15:40:07.611Z,44.29
2022-09-05T15:42:55.281Z,44.62
2022-09-05T15:45:26.681Z,44.53
2022-09-05T15:48:17.105Z,43.66
2022-09-05T15:50:51.929Z,43.41
2022-09-05T15:53:25.501Z,43.88
2022-09-05T15:56:00.198Z,44.31
2022-09-05T15:58:53.119Z,44.55
2022-09-05T16:01:30.555Z,45.03
2022-09-05T16:06:00.799Z,44.92
2022-09-05T16:10:39.231Z,44.66
2022-09-05T16:10:43.755Z,44.64
2022-09-05T16:12:47.984Z,44.60
2022-09-05T16:17:08.375Z,44.36
2022-09-05T16:23:16.960Z,44.14
2022-09-05T16:23:24.446Z,44.72
2022-09-05T16:24:04.873Z,44.50
2022-09-05T16:26:40.023Z,44.92
2022-09-05T16:29:22.509Z,44.88
2022-09-05T16:32:09.381Z,44.27
2022-09-05T16:34:47.609Z,44.62
2022-09-05T16:37:19.262Z,44.93
2022-09-05T16:39:53.513Z,45.86
2022-09-05T16:42:46.615Z,45.69
2022-09-05T16:45:26.693Z,45.57
2022-09-05T16:48:03.339Z,46.97
2022-09-05T16:50:36.916Z,47.43
2022-09-05T16:53:30.198Z,47.80
2022-09-05T16:56:12.002Z,47.69
2022-09-05T16:58:43.220Z,47.38
2022-09-05T17:01:46.550Z,47.61
2022-09-05T17:04:20.771Z,47.61
2022-09-05T17:06:56.488Z,48.50
2022-09-05T17:09:27.312Z,49.11
2022-09-05T17:12:02.184Z,49.00
2022-09-05T17:14:35.897Z,49.73
2022-09-05T17:17:40.204Z,49.73
2022-09-05T17:20:06.917Z,50.44
2022-09-05T17:24:25.806Z,50.24
2022-09-05T17:29:24.242Z,50.59
2022-09-05T17:29:24.829Z,50.47
2022-09-05T17:31:57.036Z,51.43
2022-09-05T17:34:49.678Z,51.54
2022-09-05T17:38:00.805Z,52.42
2022-09-05T17:41:08.043Z,52.96
2022-09-05T17:43:39.686Z,52.35
2022-09-05T17:46:20.147Z,52.96
2022-09-05T17:49:17.905Z,52.80
2022-09-05T17:52:18.359Z,53.26
2022-09-05T17:54:49.629Z,52.61
2022-09-05T17:57:41.041Z,53.26
2022-09-05T18:01:00.040Z,53.13
2022-09-05T18:04:16.070Z,54.19
2022-09-05T18:07:46.704Z,54.33
2022-09-05T18:10:35.720Z,55.35
2022-09-05T18:13:32.305Z,56.37
2022-09-05T18:16:13.175Z,57.38
2022-09-05T18:21:50.467Z,57.16
2022-09-05T18:24:33.254Z,57.16
2022-09-05T18:28:03.087Z,57.20
2022-09-05T18:30:10.186Z,57.17
2022-09-05T18:32:40.537Z,57.25
2022-09-05T18:35:36.133Z,56.98
2022-09-05T18:38:49.975Z,56.90
2022-09-05T18:41:19.329Z,56.59
2022-09-05T18:44:13.902Z,56.27
2022-09-05T18:46:47.869Z,56.70
2022-09-05T18:50:24.660Z,56.27
2022-09-05T18:52:17.291Z,56.54
2022-09-05T18:55:34.066Z,56.22
2022-09-05T18:57:51.238Z,57.31
2022-09-05T19:00:41.688Z,57.76
2022-09-05T19:03:25.039Z,57.97
2022-09-05T19:06:35.214Z,57.76
2022-09-05T19:08:48.846Z,58.02
2022-09-05T19:11:28.919Z,58.69
2022-09-05T19:14:26.116Z,58.55
2022-09-05T19:16:50.806Z,59.47
2022-09-05T19:19:24.466Z,59.47
2022-09-05T19:22:09.070Z,59.69
2022-09-05T19:24:45.857Z,59.93
2022-09-05T19:27:53.231Z,60.21
2022-09-05T19:36:46.652Z,60.63
2022-09-05T19:36:52.703Z,61.45
2022-09-05T19:37:11.971Z,60.86
2022-09-05T19:39:57.721Z,61.19
2022-09-05T19:47:35.725Z,61.99
2022-09-05T19:47:42.047Z,62.63
2022-09-05T19:47:51.744Z,61.92
2022-09-05T19:50:11.328Z,62.54
2022-09-05T19:52:41.002Z,63.01
2022-09-05T19:55:21.906Z,63.37
2022-09-05T19:57:55.670Z,63.31
2022-09-05T20:00:41.933Z,63.46
2022-09-05T20:03:21.360Z,64.08
2022-09-05T20:05:50.842Z,63.83
2022-09-05T20:08:32.538Z,64.18
2022-09-05T20:11:04.560Z,64.24
2022-09-05T20:13:32.962Z,64.95
2022-09-05T20:16:02.453Z,64.99
2022-09-05T20:18:37.722Z,66.31
2022-09-05T20:21:11.492Z,66.49
2022-09-05T20:23:44.308Z,67.29
2022-09-05T20:26:13.182Z,67.36
2022-09-05T20:28:43.187Z,67.81
2022-09-05T20:31:16.038Z,68.05
2022-09-05T20:33:51.691Z,68.10
2022-09-05T20:40:40.175Z,68.23
2022-09-05T20:43:17.606Z,67.83
2022-09-05T20:43:27.108Z,68.27
2022-09-05T20:44:52.771Z,67.46
2022-09-05T20:52:38.071Z,67.10
2022-09-05T20:54:20.154Z,67.77
2022-09-05T20:54:20.541Z,68.86
2022-09-05T20:56:21.034Z,69.09
2022-09-05T20:58:51.259Z,69.42
2022-09-05T21:01:23.528Z,70.08
2022-09-05T21:03:57.282Z,70.43
2022-09-05T21:06:31.696Z,69.62
2022-09-05T21:09:25.350Z,70.16
2022-09-05T21:11:58.780Z,69.54
2022-09-05T21:14:29.517Z,70.58
2022-09-05T21:16:59.760Z,71.14
2022-09-05T21:19:31.476Z,71.41
2022-09-05T21:22:04.786Z,71.94
2022-09-05T21:24:32.858Z,71.44
2022-09-05T21:27:17.446Z,71.71
2022-09-05T21:29:52.969Z,70.56
2022-09-05T21:32:37.835Z,70.45
2022-09-05T21:35:16.033Z,70.84
2022-09-05T21:38:01.521Z,71.63
2022-09-05T21:40:29.639Z,71.57
2022-09-05T21:46:07.298Z,72.28
2022-09-05T21:47:49.554Z,71.93
2022-09-05T21:48:37.833Z,72.49
2022-09-05T21:51:09.570Z,72.56
2022-09-05T21:58:37.605Z,72.47
2022-09-05T21:59:24.927Z,73.12
2022-09-05T21:59:36.767Z,73.34
2022-09-05T22:02:07.171Z,72.76
2022-09-05T22:04:41.284Z,72.46
2022-09-05T22:07:12.807Z,72.00
2022-09-05T22:09:40.816Z,72.12
2022-09-05T22:12:30.795Z,72.33
2022-09-05T22:15:28.373Z,72.24
2022-09-05T22:17:48.089Z,73.10
2022-09-05T22:20:21.081Z,72.73
2022-09-05T22:22:56.271Z,73.39
2022-09-05T22:25:28.516Z,72.99
2022-09-05T22:28:01.748Z,73.33
2022-09-05T22:30:31.157Z,74.15
2022-09-05T22:32:59.231Z,74.26
2022-09-05T22:35:28.957Z,73.83
2022-09-05T22:38:01.858Z,74.87
2022-09-05T22:40:31.662Z,74.66
2022-09-05T22:43:01.338Z,74.69
2022-09-05T22:45:32.540Z,75.61
2022-09-05T22:48:06.412Z,75.65
2022-09-05T22:50:34.501Z,75.52
2022-09-05T22:53:06.716Z,75.23
2022-09-05T22:55:35.304Z,75.42
2022-09-05T22:58:03.787Z,75.35
2022-09-05T23:00:34.635Z,75.88
2022-09-05T23:03:04.959Z,75.75
2022-09-05T23:05:33.879Z,75.77
2022-09-05T23:08:03.418Z,75.71
2022-09-05T23:10:32.321Z,76.35
2022-09-05T23:13:00.638Z,75.72
2022-09-05T23:15:28.705Z,75.05
2022-09-05T23:17:59.932Z,74.26
2022-09-05T23:20:29.836Z,74.03
2022-09-05T23:22:58.467Z,73.76
2022-09-05T23:25:26.544Z,74.59
2022-09-05T23:27:54.813Z,75.10
2022-09-05T23:30:22.816Z,75.96
2022-09-05T23:32:52.620Z,76.00
2022-09-05T23:35:22.179Z,75.88
2022-09-05T23:37:50.461Z,75.10
2022-09-05T23:40:21.999Z,74.83
2022-09-05T23:42:54.138Z,75.06
2022-09-05T23:45:23.008Z,74.64
2022-09-05T23:47:51.239Z,75.07
2022-09-05T23:50:21.646Z,74.94
2022-09-05T23:52:49.839Z,74.83
2022-09-05T23:55:19.478Z,74.69
2022-09-05T23:57:47.958Z,74.85
